Flight Track Log - Related Links

Times and Time Zones

All times are in EDT time to prevent confusion due to time zone crossing. See the ASQ5678 flight status page for this flight to view local times or setup timezone preferences in your user account.

Time Position Orientation Groundspeed Altitude Reporting Facility
EDT Latitude Longitude Course Direction KTS MPH feet Rate Location/Type
Fri 09:06:18 AM 42.9667 -87.9000 251° West 142 163 1,500  Level KMKE
Fri 09:08:46 AM 43.0683 -87.9811 330° Northwest 215 247 6,800 2,114 Climbing Chicago Center
Fri 09:09:48 AM 43.0481 -88.0661 252° West 253 291 8,900 1,984 Climbing Chicago Center
Fri 09:10:00 AM 42.9192 -88.5827 249° West  Level FlightAware Approximate
Fri 09:10:50 AM 43.0058 -88.1533 237° Southwest 272 313 10,900  Level Chicago Center
Fri 09:11:00 AM 42.8839 -88.7147 251° West  Level FlightAware Approximate
Fri 09:11:52 AM 42.9908 -88.2839 261° West 304 350 12,800  Level Chicago Center
Fri 09:12:54 AM 42.9867 -88.4067 267° West 321 369 14,400 1,500 Climbing Chicago Center
Fri 09:13:56 AM 42.9822 -88.5353 267° West 334 384 15,900 1,452 Climbing Chicago Center
Fri 09:14:58 AM 42.9775 -88.6681 267° West 345 397 17,400 1,452 Climbing Chicago Center
Fri 09:16:00 AM 42.9747 -88.8019 268° West 351 404 18,900 1,452 Climbing Chicago Center
Fri 09:17:02 AM 42.9747 -88.9381 270° West 357 411 20,400 1,452 Climbing Chicago Center
Fri 09:18:04 AM 42.9750 -89.0761 270° West 362 417 21,900 1,597 Climbing Chicago Center
Fri 09:19:06 AM 42.9742 -89.2372 270° West 365 420 23,700 1,548 Climbing Chicago Center
Fri 09:20:08 AM 42.9733 -89.3747 270° West 364 419 25,100 1,403 Climbing Chicago Center
Fri 09:21:10 AM 42.9719 -89.5108 269° West 361 415 26,600 1,452 Climbing Chicago Center
Fri 09:22:12 AM 42.9714 -89.6453 270° West 355 409 28,100 1,440 Climbing Chicago Center
Fri 09:23:15 AM 42.9725 -89.7769 271° West 350 403 29,600 1,200 Climbing Chicago Center
Fri 09:24:17 AM 42.9736 -89.9208 271° West 347 399 30,600 1,016 Climbing Chicago Center
Fri 09:25:19 AM 42.9753 -90.0528 271° West 351 404 31,700 1,161 Climbing Chicago Center
Fri 09:26:21 AM 42.9758 -90.1850 270° West 351 404 33,000 1,113 Climbing Chicago Center
Fri 09:27:23 AM 42.9506 -90.3042 254° West 340 391 34,000 484 Climbing Chicago Center
Fri 09:28:25 AM 42.8486 -90.3950 213° Southwest 366 421 34,000  Level Chicago Center
Fri 09:29:27 AM 42.7589 -90.4733 213° Southwest 382 440 34,000  Level Chicago Center
Fri 09:30:29 AM 42.6672 -90.5489 211° Southwest 385 443 34,000  Level Chicago Center
Fri 09:31:31 AM 42.5764 -90.6261 212° Southwest 386 444 34,000  Level Chicago Center
Fri 09:32:33 AM 42.4839 -90.7044 212° Southwest 391 450 34,000  Level Chicago Center
Fri 09:33:35 AM 42.3919 -90.7811 212° Southwest 391 450 34,000  Level Chicago Center
Fri 09:34:37 AM 42.2808 -90.8736 212° Southwest 392 451 34,000  Level Chicago Center
Fri 09:35:40 AM 42.1869 -90.9514 212° Southwest 397 457 34,000  Level Chicago Center
Fri 09:36:42 AM 42.0928 -91.0300 212° Southwest 399 459 34,000  Level Chicago Center
Fri 09:37:44 AM 41.9986 -91.1083 212° Southwest 402 463 34,000  Level Chicago Center
Fri 09:38:46 AM 41.9050 -91.1844 211° Southwest 398 458 34,000  Level Chicago Center
Fri 09:39:48 AM 41.7922 -91.2764 211° Southwest 398 458 34,000  Level Chicago Center
Fri 09:40:50 AM 41.6981 -91.3531 211° Southwest 398 458 34,000  Level Chicago Center
Fri 09:41:52 AM 41.6039 -91.4289 211° Southwest 398 458 34,000  Level Chicago Center
Fri 09:42:54 AM 41.5108 -91.5061 212° Southwest 399 459 34,000  Level Chicago Center
Fri 09:43:56 AM 41.4172 -91.5806 211° Southwest 395 455 34,000  Level Chicago Center
Fri 09:44:58 AM 41.3047 -91.6714 211° Southwest 398 458 34,000  Level Chicago Center
Fri 09:46:00 AM 41.2147 -91.7408 210° Southwest 396 456 34,000  Level Chicago Center
Fri 09:47:02 AM 41.1219 -91.8164 212° Southwest 395 455 34,000  Level Chicago Center
Fri 09:48:04 AM 41.0275 -91.8903 211° Southwest 396 456 34,000  Level Chicago Center
Fri 09:49:06 AM 40.9158 -91.9803 211° Southwest 395 455 34,000  Level Chicago Center
Fri 09:50:09 AM 40.8219 -92.0533 210° Southwest 396 456 34,000  Level Chicago Center
Fri 09:51:10 AM 40.7286 -92.1283 211° Southwest 396 456 34,000  Level Chicago Center
Fri 09:52:12 AM 40.6358 -92.2022 211° Southwest 393 452 34,000  Level Chicago Center
Fri 09:53:00 AM 40.5606 -92.2617 211° Southwest 394 453 34,000  Level Kansas City Center
Fri 09:54:02 AM 40.4683 -92.3331 211° Southwest 389 448 34,000  Level Kansas City Center
Fri 09:55:03 AM 40.3758 -92.4056 211° Southwest 387 445 34,000  Level Kansas City Center
Fri 09:56:05 AM 40.2653 -92.4906 210° Southwest 384 442 34,000  Level Kansas City Center
Fri 09:57:07 AM 40.1769 -92.5606 211° Southwest 385 443 34,000  Level Kansas City Center
Fri 09:58:09 AM 40.0906 -92.6361 214° Southwest 389 448 34,000  Level Kansas City Center
Fri 09:59:11 AM 39.9967 -92.7367 219° Southwest 388 447 34,000  Level Kansas City Center
Fri 10:00:13 AM 39.9122 -92.8247 219° Southwest 390 449 34,000  Level Kansas City Center
Fri 10:01:14 AM 39.8281 -92.9136 219° Southwest 391 450 34,000  Level Kansas City Center
Fri 10:02:16 AM 39.7425 -93.0011 218° Southwest 393 452 34,000  Level Kansas City Center
Fri 10:03:18 AM 39.6572 -93.0892 218° Southwest 393 452 34,000  Level Kansas City Center
Fri 10:04:20 AM 39.5567 -93.1947 219° Southwest 392 451 34,000  Level Kansas City Center
Fri 10:05:21 AM 39.4714 -93.2819 218° Southwest 391 450 34,000  Level Kansas City Center
Fri 10:06:23 AM 39.3869 -93.3683 218° Southwest 390 449 34,000  Level Kansas City Center
Fri 10:07:25 AM 39.3039 -93.4553 219° Southwest 388 447 34,000  Level Kansas City Center
Fri 10:08:27 AM 39.2025 -93.5353 211° Southwest 392 451 34,000  Level Kansas City Center
Fri 10:09:30 AM 39.0961 -93.5242 175° South 407 468 34,000  Level Kansas City Center
Fri 10:10:30 AM 38.9836 -93.4892 166° South 421 484 34,000  Level Kansas City Center
Fri 10:11:34 AM 38.8719 -93.4522 166° South 416 479 34,000 387 Level Kansas City Center
Fri 10:12:34 AM 38.7406 -93.4117 166° South 410 472 34,800 488 Climbing Kansas City Center
Fri 10:13:37 AM 38.6350 -93.3783 166° South 397 457 35,000 95 Climbing Kansas City Center
Fri 10:14:40 AM 38.5283 -93.3425 165° South 395 455 35,000  Level Kansas City Center
Fri 10:15:40 AM 38.4200 -93.3092 166° South 398 458 35,000  Level Kansas City Center
Fri 10:16:44 AM 38.3122 -93.2739 166° South 400 460 35,000  Level Kansas City Center
Fri 10:17:45 AM 38.2042 -93.2392 166° South 400 460 35,000  Level Kansas City Center
Fri 10:18:48 AM 38.0933 -93.2050 166° South 406 467 35,000  Level Kansas City Center
Fri 10:19:49 AM 37.9611 -93.1644 166° South 408 470 35,000  Level Kansas City Center
Fri 10:20:49 AM 37.8503 -93.1297 166° South 410 472 35,000  Level Kansas City Center
Fri 10:21:53 AM 37.7406 -93.0953 166° South 408 470 35,000  Level Kansas City Center
Fri 10:22:52 AM 37.6289 -93.0614 166° South 412 474 35,000  Level Kansas City Center
Fri 10:23:57 AM 37.5172 -93.0244 165° South 414 476 35,000  Level Kansas City Center
Fri 10:24:56 AM 37.4061 -92.9919 167° South 411 473 35,000  Level Kansas City Center
Fri 10:25:58 AM 37.2725 -92.9492 166° South 412 474 35,000  Level Kansas City Center
Fri 10:27:32 AM 37.1122 -92.9008 166° South 411 473 35,000  Level Memphis Center
Fri 10:28:32 AM 36.9983 -92.8686 167° South 411 473 35,000  Level Memphis Center
Fri 10:29:32 AM 36.8886 -92.8367 167° South 411 473 35,000  Level Memphis Center
Fri 10:30:32 AM 36.7789 -92.8022 166° South 411 473 35,000  Level Memphis Center
Fri 10:31:32 AM 36.6692 -92.7678 166° South 411 473 35,000  Level Memphis Center
Fri 10:32:32 AM 36.5592 -92.7361 167° South 411 473 35,000  Level Memphis Center
Fri 10:33:32 AM 36.4389 -92.6992 166° South 411 473 35,000  Level Memphis Center
Fri 10:34:32 AM 36.3269 -92.6675 167° South 411 473 35,000  Level Memphis Center
Fri 10:35:32 AM 36.2172 -92.6336 166° South 411 473 35,000  Level Memphis Center
Fri 10:36:32 AM 36.1053 -92.5997 166° South 411 473 35,000  Level Memphis Center
Fri 10:37:32 AM 35.9931 -92.5658 166° South 411 473 35,000  Level Memphis Center
Fri 10:38:32 AM 35.8833 -92.5322 166° South 411 473 35,000  Level Memphis Center
Fri 10:39:32 AM 35.7711 -92.4986 166° South 411 473 35,000  Level Memphis Center
Fri 10:40:32 AM 35.6550 -92.4650 167° South 416 479 35,000  Level Memphis Center
Fri 10:41:32 AM 35.5431 -92.4314 166° South 416 479 35,000  Level Memphis Center
Fri 10:42:32 AM 35.4267 -92.3953 166° South 416 479 35,000  Level Memphis Center
Fri 10:43:32 AM 35.3147 -92.3647 167° South 416 479 35,000 500 Level Memphis Center
Fri 10:44:32 AM 35.2006 -92.3314 167° South 416 479 36,000 500 Climbing Memphis Center
Fri 10:45:32 AM 35.0903 -92.3011 167° South 416 479 36,000  Level Memphis Center
Fri 10:46:32 AM 34.9906 -92.2708 166° South 411 473 36,000  Level Memphis Center
Fri 10:47:32 AM 34.8783 -92.2406 168° South 411 473 36,000  Level Memphis Center
Fri 10:48:32 AM 34.7683 -92.2053 165° South 411 473 36,000  Level Memphis Center
Fri 10:49:32 AM 34.6561 -92.1825 171° South 411 473 36,000  Level Memphis Center
Fri 10:50:32 AM 34.5514 -92.2031 189° South 392 451 36,000  Level Memphis Center
Fri 10:51:32 AM 34.4447 -92.2233 189° South 392 451 36,000  Level Memphis Center
Fri 10:52:32 AM 34.3400 -92.2436 189° South 386 444 36,000  Level Memphis Center
Fri 10:53:32 AM 34.2356 -92.2642 189° South 386 444 36,000  Level Memphis Center
Fri 10:54:32 AM 34.1328 -92.2819 188° South 386 444 36,000  Level Memphis Center
Fri 10:56:37 AM 33.9075 -92.3258 189° South 388 447 36,000  Level Fort Worth Center
Fri 10:57:37 AM 33.8061 -92.3469 190° South 388 447 36,000  Level Fort Worth Center
Fri 10:58:37 AM 33.7003 -92.3628 187° South 388 447 36,000  Level Fort Worth Center
Fri 10:59:37 AM 33.6008 -92.3811 189° South 386 444 36,000  Level Fort Worth Center
Fri 11:00:37 AM 33.4931 -92.3997 188° South 386 444 36,000  Level Fort Worth Center
Fri 11:01:37 AM 33.3917 -92.4203 190° South 386 444 36,000  Level Fort Worth Center
Fri 11:02:37 AM 33.2922 -92.4383 189° South 380 437 36,000  Level Fort Worth Center
Fri 11:03:37 AM 33.1992 -92.4561 189° South 363 418 36,000  Level Fort Worth Center
Fri 11:04:38 AM 33.0975 -92.4717 187° South 363 418 36,000  Level Fort Worth Center
Fri 11:05:37 AM 32.9978 -92.4894 189° South 363 418 36,000  Level Fort Worth Center
Fri 11:06:38 AM 32.8983 -92.5075 189° South 363 418 36,000  Level Fort Worth Center
Fri 11:08:43 AM 32.6894 -92.5506 190° South 361 415 36,000 -258 Level Houston Center
Fri 11:09:44 AM 32.5853 -92.5686 188° South 366 421 35,200 -878 Descending Houston Center
Fri 11:10:46 AM 32.4778 -92.5839 187° South 381 438 34,200 -585 Descending Houston Center
Fri 11:11:47 AM 32.3750 -92.6025 189° South 378 435 34,000 -98 Descending Houston Center
Fri 11:12:49 AM 32.2731 -92.6208 189° South 372 428 34,000  Level Houston Center
Fri 11:13:50 AM 32.1758 -92.6394 189° South 357 411 34,000 -49 Level Houston Center
Fri 11:14:52 AM 32.0822 -92.6550 188° South 339 390 33,900 -49 Descending Houston Center
Fri 11:15:53 AM 31.9881 -92.6383 171° South 338 389 33,900 49 Level Houston Center
Fri 11:16:55 AM 31.8958 -92.6211 171° South 334 384 34,000 49 Climbing Houston Center
Fri 11:17:56 AM 31.8050 -92.6042 171° South 330 380 34,000  Level Houston Center
Fri 11:18:58 AM 31.6908 -92.5825 171° South 343 395 34,000  Level Houston Center
Fri 11:19:59 AM 31.5931 -92.5644 171° South 351 404 34,000  Level Houston Center
Fri 11:21:01 AM 31.4947 -92.5456 171° South 355 409 34,000  Level Houston Center
Fri 11:22:02 AM 31.3917 -92.5261 171° South 369 425 34,000  Level Houston Center
Fri 11:23:04 AM 31.2867 -92.5058 171° South 377 434 34,000  Level Houston Center
Fri 11:24:05 AM 31.1853 -92.5081 181° South 378 435 34,000  Level Houston Center
Fri 11:25:07 AM 31.1347 -92.5842 232° Southwest 312 359 34,000  Level Houston Center
Fri 11:26:08 AM 31.1539 -92.6733 284° West 298 343 34,000  Level Houston Center
Fri 11:27:09 AM 31.2492 -92.7189 338° Northwest 331 381 34,000 -49 Level Houston Center
Fri 11:28:11 AM 31.3389 -92.7372 350° North 330 380 33,900  Descending Houston Center
Fri 11:29:12 AM 31.4314 -92.7419 358° North 340 391 34,000 49 Climbing Houston Center
Fri 11:30:14 AM 31.4958 -92.6497 51° Northeast 388 447 34,000  Level Houston Center
Fri 11:31:15 AM 31.4442 -92.5419 119° Southeast 401 461 34,000  Level Houston Center
Fri 11:32:17 AM 31.3589 -92.5644 193° South 362 417 34,000  Level Houston Center
Fri 11:33:18 AM 31.3425 -92.6531 258° West 308 354 34,000  Level Houston Center
Fri 11:34:20 AM 31.3261 -92.7497 259° West 298 343 34,000  Level Houston Center
Fri 11:35:22 AM 31.3042 -92.8625 257° West 297 342 34,000  Level Houston Center
Fri 11:36:23 AM 31.2861 -92.9583 258° West 301 346 34,000  Level Houston Center
Fri 11:37:25 AM 31.2681 -93.0531 257° West 300 345 34,000  Level Houston Center
Fri 11:38:26 AM 31.2500 -93.1442 257° West 292 336 34,000  Level Houston Center
Fri 11:39:28 AM 31.2331 -93.2339 258° West 287 330 34,000  Level Houston Center
Fri 11:40:29 AM 31.2161 -93.3208 257° West 279 321 34,000  Level Houston Center
Fri 11:41:31 AM 31.1994 -93.4061 257° West 273 314 34,000 -48 Level Houston Center
Fri 11:42:33 AM 31.1797 -93.5083 257° West 272 313 33,900  Descending Houston Center
Fri 11:43:34 AM 31.1636 -93.5922 257° West 268 308 34,000 49 Climbing Houston Center
Fri 11:44:36 AM 31.1472 -93.6769 257° West 269 310 34,000  Level Houston Center
Fri 11:45:37 AM 31.1311 -93.7603 257° West 265 305 34,000  Level Houston Center
Fri 11:46:39 AM 31.1142 -93.8433 257° West 265 305 34,000  Level Houston Center
Fri 11:47:40 AM 31.0986 -93.9261 258° West 264 304 34,000  Level Houston Center
Fri 11:48:42 AM 31.0789 -94.0178 256° West 269 310 34,000  Level Houston Center
Fri 11:49:43 AM 31.0625 -94.1033 257° West 269 310 34,000  Level Houston Center
Fri 11:50:44 AM 31.0458 -94.1889 257° West 270 311 34,000  Level Houston Center
Fri 11:51:46 AM 31.0283 -94.2739 257° West 270 311 34,000  Level Houston Center
Fri 11:52:48 AM 31.0075 -94.3764 257° West 270 311 34,000 -537 Level Houston Center
Fri 11:53:49 AM 30.9903 -94.4628 257° West 272 313 32,900 -1,268 Descending Houston Center
Fri 11:54:51 AM 30.9725 -94.5481 256° West 270 311 31,400 -1,463 Descending Houston Center
Fri 11:55:52 AM 30.9553 -94.6306 256° West 263 303 29,900 -1,463 Descending Houston Center
Fri 11:56:54 AM 30.9381 -94.7128 256° West 260 299 28,400 -1,463 Descending Houston Center
Fri 11:57:55 AM 30.9219 -94.7958 257° West 261 300 26,900 -1,171 Descending Houston Center
Fri 11:58:57 AM 30.9356 -94.8833 280° West 268 308 26,000 -439 Descending Houston Center
Fri 11:59:58 AM 30.9503 -94.9675 282° West 264 304 26,000 -439 Level Houston Center
Fri 12:01:00 PM 30.9636 -95.0547 280° West 268 308 25,100 -1,268 Descending Houston Center
Fri 12:02:01 PM 30.9592 -95.1436 267° West 284 327 23,400 -2,000 Descending Houston Center
Fri 12:03:03 PM 30.9292 -95.2464 251° West 279 321 21,000 -2,098 Descending Houston Center
Fri 12:04:04 PM 30.9033 -95.3325 251° West 282 325 19,100 -1,820 Descending Houston Center
Fri 12:04:32 PM 30.8922 -95.3714 252° West 285 328 18,300 -1,645 Descending Houston Center
Fri 12:05:06 PM 30.8775 -95.4175 250° West 280 322 17,400 -1,808 Descending Houston Center
Fri 12:05:45 PM 30.8597 -95.4775 251° West 280 322 16,100 -1,770 Descending Houston Center
Fri 12:06:07 PM 30.8517 -95.5022 249° West 279 321 15,600 -1,770 Descending Houston Center
Fri 12:06:46 PM 30.8356 -95.5581 251° West 270 311 14,300 -1,452 Descending Houston Center
Fri 12:07:09 PM 30.8275 -95.5836 250° West 270 311 14,100 -1,770 Descending Houston Center
Fri 12:07:47 PM 30.8111 -95.6364 250° West 260 299 12,500 -2,164 Descending Houston Center
Fri 12:08:10 PM 30.8044 -95.6617 253° West 260 299 11,900 -1,770 Descending Houston Center
Fri 12:08:48 PM 30.7886 -95.7144 251° West 252 290 10,700 -1,548 Descending Houston Center
Fri 12:09:12 PM 30.7814 -95.7367 249° West 250 288 10,300 -1,475 Descending Houston Center
Fri 12:09:49 PM 30.7658 -95.7900 251° West 236 272 9,200 -1,377 Descending Houston Center
Fri 12:10:13 PM 30.7603 -95.8069 249° West 236 272 8,900 -1,180 Descending Houston Center
Fri 12:10:50 PM 30.7442 -95.8558 249° West 216 249 8,000 -871 Descending Houston Center
Fri 12:11:15 PM 30.7400 -95.8714 253° West 219 252 8,000  Level Houston Center
Fri 12:11:50 PM 30.7178 -95.9147 239° Southwest 192 221 8,000  Level Houston Center
Fri 12:12:16 PM 30.7050 -95.9386 238° Southwest 204 235 8,000 -98 Level Houston Center
Fri 12:12:51 PM 30.6914 -95.9714 244° Southwest 201 231 7,900 -387 Descending Houston Center
Fri 12:13:18 PM 30.6769 -95.9950 235° Southwest 201 231 7,600 -1,180 Descending Houston Center
Fri 12:13:52 PM 30.6558 -96.0239 230° Southwest 214 246 6,700 -1,574 Descending Houston Center
Fri 12:14:19 PM 30.6400 -96.0456 230° Southwest 207 238 6,000 -1,574 Descending Houston Center
Fri 12:14:53 PM 30.6144 -96.0794 229° Southwest 215 247 5,100 -1,355 Descending Houston Center
Fri 12:15:21 PM 30.6033 -96.0992 237° Southwest 220 253 4,600 -1,180 Descending Houston Center
Fri 12:15:54 PM 30.5761 -96.1444 235° Southwest 238 274 3,900 -787 Descending Houston Center
Fri 12:16:22 PM 30.5636 -96.1631 232° Southwest 237 273 3,800 -800 Descending Houston Center
Fri 12:16:54 PM 30.5369 -96.2047 233° Southwest 236 272 3,100 -1,065 Descending Houston Center
Fri 12:17:24 PM 30.5236 -96.2228 229° Southwest 234 269 2,700 -1,082 Descending Houston Center
Fri 12:17:55 PM 30.5092 -96.2708 251° West 226 260 2,000 -787 Descending Houston Center
Fri 12:18:25 PM 30.5031 -96.2917 251° West 226 260 1,900 -269 Descending Houston Center
Fri 12:19:02 PM 30.4978 -96.3375 262° West 199 229 1,700 -387 Descending Houston Center
Fri 12:19:27 PM 30.5167 -96.3458 339° North 190 219 1,500 -655 Descending Houston Center
Fri 12:19:57 PM 30.5347 -96.3503 348° North 125 144 1,100 -689 Descending Houston Center
Fri 12:20:28 PM 30.5550 -96.3528 354° North 154 177 800 -387 Descending Houston Center
Fri 12:21:30 PM 30.5889 -96.3569 354° North 149 171 500 -290 Descending Houston Center
Fri 12:23:00 PM 30.5833 -96.3500 325° Northwest  Level FlightAware Approximate

Login

Don't have an account? Register now (free) for customized features, flight alerts, and more!